Terminal Aerodrome Forecast
Issued by NWS Columbia, SC

Home | Current Version | Previous Version | Text Only | Print | Product List | Glossary On
Versions: 1 2 3 4 5 6 7 8 9 10 11 12 13 14 15 16 17 18 19 20 21 22 23 24 25 26 27
000
FTUS42 KCAE 231723
TAFCAE
TAF
KCAE 231723Z 2318/2418 14012G18KT P6SM VCSH SCT015 BKN025
     FM232000 17012G18KT 6SM -SHRA BR SCT015 OVC025
      TEMPO 2320/2324 3SM SHRA BKN015
     FM240200 24006KT P6SM FEW250=

USA.gov is the U.S. government's official web portal to all federal, state and local government web resources and services.